Time;durP1;ratioP1;P1;durP2;ratioP2;P2;SDS_P1;SDS_P2;PMS_P1;PMS_P2;Temp;Humidity;BMP_temperature;BMP_pressure;BME280_temperature;BME280_humidity;BME280_pressure;Samples;Min_cycle;Max_cycle;Signal;HPM_P1;HPM_P2
2023/06/13 00:00:37;;;;;;;10.90;6.33;;;20.90;7.70;;;;;;5031529;28;20383;-73
2023/06/13 00:03:03;;;;;;;9.75;6.30;;;21.00;7.40;;;;;;5031606;28;20405;-72
2023/06/13 00:05:30;;;;;;;10.27;6.28;;;21.20;7.10;;;;;;5031734;28;21100;-73
2023/06/13 00:07:56;;;;;;;11.00;6.45;;;21.10;7.30;;;;;;5031482;28;20682;-73
2023/06/13 00:10:21;;;;;;;12.90;6.80;;;21.00;7.40;;;;;;5031339;28;20410;-73
2023/06/13 00:12:49;;;;;;;10.93;6.10;;;21.00;7.30;;;;;;5031214;28;20423;-73
2023/06/13 00:15:15;;;;;;;12.63;6.20;;;20.90;7.70;;;;;;5031644;28;20428;-72
2023/06/13 00:17:41;;;;;;;15.25;7.03;;;20.90;7.70;;;;;;5031337;28;20407;-73
2023/06/13 00:20:08;;;;;;;14.85;7.47;;;20.80;7.70;;;;;;5031338;28;20391;-72
2023/06/13 00:22:34;;;;;;;10.82;6.50;;;20.70;8.00;;;;;;5030906;28;20871;-73
2023/06/13 00:25:00;;;;;;;8.85;6.57;;;20.60;8.20;;;;;;5030973;28;20379;-73
2023/06/13 00:27:25;;;;;;;11.73;6.38;;;20.50;8.40;;;;;;5031438;28;20465;-73
2023/06/13 00:29:51;;;;;;;8.80;6.40;;;20.60;8.70;;;;;;5031074;28;20379;-72
2023/06/13 00:32:17;;;;;;;12.50;6.80;;;20.60;8.30;;;;;;5030671;28;20394;-72
2023/06/13 00:34:43;;;;;;;14.52;6.35;;;20.60;8.30;;;;;;5030861;28;20387;-72
2023/06/13 00:37:09;;;;;;;10.57;5.90;;;20.60;8.30;;;;;;5030917;28;20438;-72
2023/06/13 00:39:36;;;;;;;9.75;6.70;;;20.80;8.10;;;;;;5029166;28;20383;-72
2023/06/13 00:42:02;;;;;;;12.75;6.45;;;20.60;8.30;;;;;;5030425;28;20383;-72
2023/06/13 00:44:28;;;;;;;11.30;6.70;;;20.60;8.30;;;;;;5030867;28;20902;-72
2023/06/13 00:46:53;;;;;;;10.97;6.60;;;20.60;8.30;;;;;;5031038;28;20383;-72
2023/06/13 00:49:19;;;;;;;10.30;6.20;;;20.40;8.60;;;;;;5030794;28;20387;-73
2023/06/13 00:51:46;;;;;;;10.40;5.95;;;20.40;8.90;;;;;;5030710;28;20391;-72
2023/06/13 00:54:13;;;;;;;12.17;7.00;;;20.40;8.70;;;;;;5030951;28;20433;-72
2023/06/13 00:56:40;;;;;;;9.05;6.40;;;20.40;8.80;;;;;;5030615;28;20729;-73
2023/06/13 00:59:08;;;;;;;11.15;6.25;;;20.40;8.90;;;;;;5030478;28;20403;-72
2023/06/13 01:01:34;;;;;;;13.35;6.47;;;20.10;9.10;;;;;;5030320;28;20383;-72
2023/06/13 01:04:00;;;;;;;9.80;6.17;;;20.00;9.40;;;;;;5030537;28;20756;-72
2023/06/13 01:06:30;;;;;;;10.80;6.63;;;19.80;9.60;;;;;;5030514;28;20375;-72
2023/06/13 01:08:58;;;;;;;10.55;6.63;;;19.80;9.80;;;;;;5030568;28;20837;-72
2023/06/13 01:12:17;;;;;;;9.10;6.22;;;19.80;9.90;;;;;;5030068;28;20383;-70
2023/06/13 01:14:49;;;;;;;14.17;6.20;;;19.70;10.50;;;;;;5013748;28;20387;-73
2023/06/13 01:17:27;;;;;;;21.83;6.63;;;19.80;11.00;;;;;;5030324;28;20399;-73
2023/06/13 01:19:59;;;;;;;12.68;6.50;;;19.70;11.10;;;;;;5030433;28;20796;-73
2023/06/13 01:22:45;;;;;;;12.80;6.30;;;19.80;11.00;;;;;;5030050;28;20876;-73
2023/06/13 01:25:21;;;;;;;10.60;6.78;;;19.60;11.30;;;;;;5030160;28;20387;-73
2023/06/13 01:27:50;;;;;;;9.23;6.22;;;19.60;11.50;;;;;;5030268;28;20395;-73
2023/06/13 01:30:18;;;;;;;10.70;6.63;;;19.50;11.50;;;;;;5030149;28;20934;-73
2023/06/13 01:32:46;;;;;;;10.10;6.70;;;19.40;11.70;;;;;;5029894;28;20429;-73
2023/06/13 01:35:13;;;;;;;14.00;6.57;;;19.10;12.30;;;;;;5030212;28;20395;-73
2023/06/13 01:37:39;;;;;;;10.10;6.18;;;19.10;12.30;;;;;;5030340;28;20429;-73
2023/06/13 01:40:07;;;;;;;9.40;5.95;;;19.20;12.40;;;;;;5030256;28;20418;-72
2023/06/13 01:42:33;;;;;;;11.80;7.00;;;19.10;12.30;;;;;;5028779;28;20478;-73
2023/06/13 01:44:59;;;;;;;10.03;6.43;;;19.10;12.70;;;;;;5030371;28;20879;-71
2023/06/13 01:47:33;;;;;;;11.68;6.90;;;19.10;12.70;;;;;;5030169;28;20724;-71
2023/06/13 01:50:14;;;;;;;9.25;6.50;;;19.00;12.70;;;;;;5030525;28;20379;-71
2023/06/13 01:52:47;;;;;;;11.93;7.55;;;18.80;13.40;;;;;;5032627;28;20374;-73
2023/06/13 01:55:21;;;;;;;11.53;6.90;;;18.80;13.80;;;;;;5034007;28;20387;-71
2023/06/13 01:58:12;;;;;;;12.57;7.03;;;18.50;14.10;;;;;;5034279;28;20488;-71
2023/06/13 02:00:40;;;;;;;9.32;6.18;;;18.60;14.20;;;;;;5032733;28;20852;-71
2023/06/13 02:03:06;;;;;;;15.17;6.87;;;18.60;14.20;;;;;;5032256;28;20394;-71
2023/06/13 02:05:32;;;;;;;14.90;6.73;;;18.60;15.00;;;;;;5033566;28;20732;-71
2023/06/13 02:07:57;;;;;;;10.93;6.50;;;18.70;14.40;;;;;;5033535;28;20382;-71
2023/06/13 02:10:24;;;;;;;14.00;6.80;;;18.70;13.90;;;;;;5033555;28;20409;-71
2023/06/13 02:12:50;;;;;;;14.70;6.90;;;18.60;14.30;;;;;;5033329;28;20409;-71
2023/06/13 02:15:15;;;;;;;14.25;7.00;;;18.70;14.10;;;;;;5033408;28;20391;-71
2023/06/13 02:17:41;;;;;;;11.00;6.53;;;18.80;13.80;;;;;;5033440;28;20504;-72
2023/06/13 02:20:08;;;;;;;11.32;6.80;;;18.90;13.70;;;;;;5033771;28;20382;-72
2023/06/13 02:22:34;;;;;;;13.00;6.97;;;18.80;13.70;;;;;;5033536;28;20776;-72
2023/06/13 02:24:59;;;;;;;11.95;6.85;;;18.80;14.20;;;;;;5033605;28;20387;-72
2023/06/13 02:27:25;;;;;;;11.47;6.60;;;18.70;14.10;;;;;;5034371;28;20459;-72
2023/06/13 02:29:51;;;;;;;11.00;6.30;;;18.60;14.20;;;;;;5033320;28;20468;-73
2023/06/13 02:32:18;;;;;;;11.20;6.93;;;18.40;14.70;;;;;;5034505;28;20387;-73
2023/06/13 02:34:44;;;;;;;10.52;7.05;;;18.30;14.80;;;;;;5033585;28;20414;-74
2023/06/13 02:37:10;;;;;;;17.75;7.53;;;18.50;14.40;;;;;;5033027;28;20387;-73
2023/06/13 02:39:35;;;;;;;11.50;7.53;;;18.70;14.30;;;;;;5033044;28;20817;-73
2023/06/13 02:42:01;;;;;;;13.83;7.40;;;18.60;14.30;;;;;;5032991;28;20383;-72
2023/06/13 02:44:27;;;;;;;10.55;7.00;;;18.30;14.80;;;;;;5032767;28;20760;-71
2023/06/13 02:46:53;;;;;;;13.32;7.00;;;18.20;15.20;;;;;;5032910;28;20387;-72
2023/06/13 02:49:19;;;;;;;13.10;7.53;;;18.30;15.10;;;;;;5032837;28;20540;-72
2023/06/13 02:51:45;;;;;;;13.13;7.60;;;18.50;14.90;;;;;;5032490;28;20416;-72
2023/06/13 02:54:11;;;;;;;12.67;7.00;;;18.30;15.00;;;;;;5032698;28;20736;-72
2023/06/13 02:56:37;;;;;;;11.75;6.93;;;18.10;15.50;;;;;;5032627;28;20398;-72
2023/06/13 02:59:02;;;;;;;13.23;6.90;;;17.80;16.20;;;;;;5032636;28;20406;-72
2023/06/13 03:01:29;;;;;;;16.53;9.53;;;17.90;16.30;;;;;;5032689;28;20378;-71
2023/06/13 03:03:54;;;;;;;15.70;9.20;;;18.10;16.10;;;;;;5031638;28;20379;-72
2023/06/13 03:06:20;;;;;;;14.63;8.45;;;18.20;16.10;;;;;;5032624;28;20441;-72
2023/06/13 03:08:48;;;;;;;18.13;9.10;;;18.20;16.00;;;;;;5031472;28;20920;-72
2023/06/13 03:11:13;;;;;;;14.68;7.72;;;18.20;16.40;;;;;;5032386;28;20413;-71
2023/06/13 03:13:39;;;;;;;12.80;7.50;;;18.30;15.70;;;;;;5032693;28;20470;-71
2023/06/13 03:16:06;;;;;;;14.18;8.40;;;18.30;15.80;;;;;;5032730;28;20832;-73
2023/06/13 03:18:32;;;;;;;15.13;7.80;;;18.20;16.10;;;;;;5032278;28;20411;-73
2023/06/13 03:20:58;;;;;;;17.60;8.50;;;18.20;16.10;;;;;;5030979;28;20470;-72
2023/06/13 03:23:23;;;;;;;15.10;8.48;;;18.10;16.70;;;;;;5031571;28;20407;-72
2023/06/13 03:25:49;;;;;;;14.07;7.20;;;18.00;16.80;;;;;;5032397;28;20393;-73
2023/06/13 03:28:15;;;;;;;16.23;7.97;;;17.80;17.10;;;;;;5032489;28;20458;-73
2023/06/13 03:30:40;;;;;;;12.93;7.60;;;17.70;17.70;;;;;;5032128;28;20410;-73
2023/06/13 03:33:06;;;;;;;12.70;7.80;;;17.70;17.70;;;;;;5032116;28;20678;-74
2023/06/13 03:35:31;;;;;;;14.43;8.57;;;17.80;17.50;;;;;;5030705;28;20391;-73
2023/06/13 03:37:57;;;;;;;13.98;7.40;;;18.00;17.30;;;;;;5032214;28;20888;-72
2023/06/13 03:40:22;;;;;;;12.57;6.83;;;18.00;17.20;;;;;;5032145;28;20384;-73
2023/06/13 03:42:50;;;;;;;13.40;7.57;;;18.00;17.20;;;;;;5031968;28;20379;-73
2023/06/13 03:45:17;;;;;;;12.18;6.95;;;18.10;17.20;;;;;;5056067;23;20440;-72
2023/06/13 03:47:42;;;;;;;10.38;6.65;;;18.10;16.80;;;;;;5052102;28;20476;-71
2023/06/13 03:50:08;;;;;;;25.45;7.28;;;18.10;16.60;;;;;;5051987;28;20921;-71
2023/06/13 03:52:34;;;;;;;11.13;7.00;;;18.10;16.70;;;;;;5051770;28;20428;-71
2023/06/13 03:54:59;;;;;;;10.17;6.80;;;18.00;17.00;;;;;;5051889;28;20457;-71
2023/06/13 03:57:25;;;;;;;12.20;7.22;;;18.00;17.10;;;;;;5051887;28;20428;-71
2023/06/13 03:59:51;;;;;;;13.73;6.90;;;18.00;16.90;;;;;;5051986;28;20381;-70
2023/06/13 04:02:19;;;;;;;15.70;7.40;;;18.00;17.10;;;;;;5051635;28;20382;-71
2023/06/13 04:04:46;;;;;;;15.57;7.78;;;17.90;17.20;;;;;;5051683;28;20440;-70
2023/06/13 04:07:12;;;;;;;14.98;7.55;;;18.00;17.20;;;;;;5051784;28;20392;-71
2023/06/13 04:09:38;;;;;;;14.40;7.00;;;18.00;17.10;;;;;;5051478;28;20983;-71
2023/06/13 04:12:04;;;;;;;15.70;7.30;;;17.90;17.50;;;;;;5051474;28;20460;-71
2023/06/13 04:14:29;;;;;;;12.38;7.10;;;17.80;18.00;;;;;;5051243;28;20385;-70
2023/06/13 04:16:57;;;;;;;14.03;7.17;;;17.90;17.70;;;;;;5051543;28;20392;-71
2023/06/13 04:19:23;;;;;;;12.43;7.50;;;18.00;17.60;;;;;;5051781;28;20397;-71
2023/06/13 04:21:51;;;;;;;9.70;6.80;;;18.00;17.80;;;;;;5051344;28;20370;-71
2023/06/13 04:24:17;;;;;;;14.57;7.32;;;18.10;17.40;;;;;;5052376;28;20382;-71
2023/06/13 04:26:45;;;;;;;14.53;7.53;;;18.20;17.40;;;;;;5051553;28;20389;-71
2023/06/13 04:29:13;;;;;;;14.82;6.68;;;18.20;17.40;;;;;;5051649;28;20753;-70
2023/06/13 04:31:41;;;;;;;13.23;7.30;;;18.30;17.10;;;;;;5051249;28;20758;-72
2023/06/13 04:34:08;;;;;;;9.70;6.40;;;18.40;17.10;;;;;;5051995;28;20421;-71
2023/06/13 04:36:35;;;;;;;13.57;7.18;;;18.40;17.20;;;;;;5052036;28;20393;-72
2023/06/13 04:39:05;;;;;;;13.63;7.03;;;18.40;17.00;;;;;;5052617;28;20432;-71
2023/06/13 04:41:37;;;;;;;9.73;6.75;;;18.40;17.00;;;;;;5051390;28;20878;-69
2023/06/13 04:44:09;;;;;;;11.27;7.00;;;18.40;17.20;;;;;;5051279;28;20377;-70
2023/06/13 04:46:36;;;;;;;11.10;6.70;;;18.50;17.20;;;;;;5051372;28;20409;-71
2023/06/13 04:49:04;;;;;;;11.07;6.90;;;18.40;17.40;;;;;;5051004;28;20416;-70
2023/06/13 04:51:30;;;;;;;14.80;7.03;;;18.50;17.10;;;;;;5050757;28;20481;-70
2023/06/13 04:54:00;;;;;;;13.80;7.35;;;18.60;16.70;;;;;;5050689;28;20410;-70
2023/06/13 04:56:27;;;;;;;13.70;7.38;;;18.60;17.00;;;;;;5049492;28;20754;-70
2023/06/13 04:58:53;;;;;;;15.00;7.15;;;18.40;17.30;;;;;;5050735;28;20401;-69
2023/06/13 05:01:20;;;;;;;12.30;7.50;;;18.50;17.40;;;;;;5050612;28;20393;-69
2023/06/13 05:03:49;;;;;;;12.02;7.63;;;18.70;17.10;;;;;;5049463;28;20492;-70
2023/06/13 05:06:15;;;;;;;14.80;7.33;;;18.90;16.60;;;;;;5050829;28;20723;-71
2023/06/13 05:08:40;;;;;;;12.55;6.68;;;19.00;16.30;;;;;;5050772;28;20381;-70
2023/06/13 05:11:06;;;;;;;9.30;6.80;;;19.00;15.80;;;;;;5050850;28;20651;-70
2023/06/13 05:13:32;;;;;;;13.17;7.27;;;19.10;16.30;;;;;;5050771;28;20488;-70
2023/06/13 05:15:57;;;;;;;13.60;7.60;;;19.10;16.50;;;;;;5051244;28;20389;-71
2023/06/13 05:18:29;;;;;;;13.17;7.40;;;19.10;16.60;;;;;;5050615;28;20476;-70
2023/06/13 05:20:56;;;;;;;12.18;7.20;;;19.10;16.80;;;;;;5050677;28;20389;-71
2023/06/13 05:23:22;;;;;;;12.43;7.50;;;19.00;16.90;;;;;;5050768;28;20384;-71
2023/06/13 05:25:48;;;;;;;13.83;6.87;;;19.10;17.30;;;;;;5052155;28;20460;-71
2023/06/13 05:28:16;;;;;;;13.60;7.20;;;19.10;17.60;;;;;;5057134;28;20391;-70
2023/06/13 05:30:42;;;;;;;13.77;6.90;;;19.10;17.80;;;;;;5057354;28;20400;-68
2023/06/13 05:33:08;;;;;;;17.45;9.40;;;19.20;17.80;;;;;;5057153;28;20385;-70
2023/06/13 05:35:33;;;;;;;19.52;9.82;;;19.40;17.30;;;;;;5057145;28;20457;-70
2023/06/13 05:37:59;;;;;;;21.57;8.87;;;19.50;17.10;;;;;;5058455;28;20396;-71
2023/06/13 05:40:24;;;;;;;17.00;8.83;;;19.60;17.10;;;;;;5058581;28;20412;-69
2023/06/13 05:42:50;;;;;;;17.20;8.77;;;19.60;16.90;;;;;;5057898;28;20408;-70
2023/06/13 05:45:16;;;;;;;13.07;7.90;;;19.70;16.90;;;;;;5057126;28;20400;-69
2023/06/13 05:47:41;;;;;;;17.70;8.03;;;19.90;16.80;;;;;;5057455;28;20392;-71
2023/06/13 05:50:07;;;;;;;15.48;6.72;;;19.90;16.50;;;;;;5057269;28;20730;-69
2023/06/13 05:52:33;;;;;;;14.02;7.70;;;20.10;16.50;;;;;;5056870;28;20391;-70
2023/06/13 05:55:01;;;;;;;10.98;6.93;;;20.10;16.00;;;;;;5056984;28;20432;-70
2023/06/13 05:57:38;;;;;;;13.52;7.07;;;20.20;15.90;;;;;;5056816;28;20429;-69
2023/06/13 06:00:06;;;;;;;12.48;7.22;;;20.40;15.70;;;;;;5057347;28;20408;-69
2023/06/13 06:02:32;;;;;;;12.68;6.95;;;20.50;15.70;;;;;;5056915;28;20927;-68
2023/06/13 06:05:00;;;;;;;11.90;7.40;;;20.60;15.50;;;;;;5056983;28;20389;-70
2023/06/13 06:07:26;;;;;;;14.57;7.30;;;20.70;15.30;;;;;;5057092;28;20384;-70
2023/06/13 06:09:51;;;;;;;15.02;6.55;;;20.90;14.30;;;;;;5056841;28;20877;-70
2023/06/13 06:12:17;;;;;;;12.37;6.50;;;20.90;14.60;;;;;;5056930;28;20459;-70
2023/06/13 06:14:42;;;;;;;15.80;6.70;;;21.10;13.70;;;;;;5057202;28;20439;-70
2023/06/13 06:17:08;;;;;;;12.60;6.70;;;21.20;13.90;;;;;;5055663;28;20385;-70
2023/06/13 06:19:34;;;;;;;12.63;6.47;;;21.20;13.60;;;;;;5057125;28;20381;-71
2023/06/13 06:21:59;;;;;;;14.37;7.00;;;21.30;13.20;;;;;;5056927;28;20389;-73
2023/06/13 06:24:25;;;;;;;18.45;7.43;;;21.50;13.10;;;;;;5056812;28;20444;-70
2023/06/13 06:26:50;;;;;;;12.53;6.43;;;21.60;13.20;;;;;;5057052;28;20401;-71
2023/06/13 06:29:16;;;;;;;10.23;6.23;;;21.60;13.20;;;;;;5056909;28;20393;-70
2023/06/13 06:31:41;;;;;;;10.70;6.50;;;21.70;13.30;;;;;;5057207;28;20393;-70
2023/06/13 06:34:07;;;;;;;13.47;6.47;;;21.90;12.00;;;;;;5057684;28;20472;-69
2023/06/13 06:36:32;;;;;;;15.30;6.72;;;21.90;12.30;;;;;;5059020;28;20416;-70
2023/06/13 06:38:58;;;;;;;10.40;6.33;;;21.90;12.10;;;;;;5071435;28;20402;-69
2023/06/13 06:41:23;;;;;;;16.40;6.68;;;22.00;11.70;;;;;;5071370;28;20377;-71
2023/06/13 06:43:49;;;;;;;12.80;6.83;;;22.10;12.00;;;;;;5063000;28;20843;-69
2023/06/13 06:46:15;;;;;;;10.50;6.23;;;22.10;12.50;;;;;;5053875;28;20435;-71
2023/06/13 06:48:40;;;;;;;15.10;5.90;;;22.20;11.50;;;;;;5053633;28;20388;-70
2023/06/13 06:51:06;;;;;;;10.80;5.87;;;22.40;10.90;;;;;;5053304;28;20390;-69
2023/06/13 06:53:32;;;;;;;10.67;6.20;;;22.40;10.00;;;;;;5053416;28;20428;-69
2023/06/13 06:55:57;;;;;;;11.75;6.25;;;22.40;10.00;;;;;;5053012;28;20389;-70
2023/06/13 06:58:23;;;;;;;11.47;6.40;;;22.60;10.30;;;;;;5053356;28;20596;-71
2023/06/13 07:00:48;;;;;;;8.73;5.97;;;22.70;10.20;;;;;;5052913;28;20505;-69
2023/06/13 07:03:14;;;;;;;11.40;6.00;;;22.70;10.20;;;;;;5039162;28;20478;-69
2023/06/13 07:05:40;;;;;;;9.93;6.10;;;22.80;8.70;;;;;;5052434;28;20418;-70
2023/06/13 07:08:06;;;;;;;9.23;5.93;;;22.80;8.80;;;;;;5040102;28;20402;-68
2023/06/13 07:10:32;;;;;;;14.27;6.70;;;22.90;8.70;;;;;;5033203;28;20800;-70
2023/06/13 07:12:57;;;;;;;10.27;6.30;;;22.80;8.50;;;;;;5032982;28;20939;-70
2023/06/13 07:15:23;;;;;;;7.40;5.60;;;22.90;8.00;;;;;;5032898;28;20391;-69
2023/06/13 07:17:48;;;;;;;15.67;6.17;;;23.00;7.90;;;;;;5040068;28;21870;-71
2023/06/13 07:20:14;;;;;;;11.55;6.18;;;23.00;7.00;;;;;;5041535;28;20391;-70
2023/06/13 07:22:40;;;;;;;7.77;5.60;;;23.00;7.40;;;;;;5033740;28;20383;-69
2023/06/13 07:25:06;;;;;;;12.20;5.78;;;23.20;7.40;;;;;;5050895;28;20381;-69
2023/06/13 07:27:32;;;;;;;9.73;5.80;;;23.20;7.60;;;;;;5048828;28;20454;-70
2023/06/13 07:29:57;;;;;;;12.97;6.20;;;23.40;6.40;;;;;;5038867;28;20601;-71
2023/06/13 07:32:23;;;;;;;10.45;5.55;;;23.40;6.50;;;;;;5043343;28;20385;-71
2023/06/13 07:34:49;;;;;;;16.77;6.10;;;23.50;6.30;;;;;;5030405;28;20398;-70
2023/06/13 07:37:15;;;;;;;10.63;5.80;;;23.50;6.00;;;;;;5030739;28;20391;-70
2023/06/13 07:39:41;;;;;;;9.47;5.93;;;23.50;6.60;;;;;;5030644;28;20553;-69
2023/06/13 07:42:07;;;;;;;8.48;5.65;;;23.70;6.70;;;;;;5031514;28;20713;-69
2023/06/13 07:44:32;;;;;;;9.63;5.25;;;23.70;5.70;;;;;;5030625;28;20480;-68
2023/06/13 07:46:58;;;;;;;10.53;6.03;;;23.70;5.90;;;;;;5030810;28;20480;-69
2023/06/13 07:49:23;;;;;;;7.80;5.43;;;24.00;5.80;;;;;;5030077;28;20391;-71
2023/06/13 07:51:50;;;;;;;12.50;5.10;;;23.90;5.80;;;;;;5033577;28;20947;-70
2023/06/13 07:54:15;;;;;;;13.77;5.78;;;24.00;5.30;;;;;;5049395;28;20389;-70
2023/06/13 07:56:41;;;;;;;7.70;5.20;;;24.00;6.00;;;;;;5049262;28;20397;-69
2023/06/13 07:59:06;;;;;;;7.82;5.38;;;24.00;5.30;;;;;;5050065;28;20808;-71
2023/06/13 08:01:32;;;;;;;10.10;5.60;;;24.00;5.70;;;;;;5039260;28;20405;-70
2023/06/13 08:03:57;;;;;;;12.13;5.80;;;24.10;5.00;;;;;;5049602;28;20820;-69
2023/06/13 08:06:23;;;;;;;8.37;5.40;;;24.10;4.70;;;;;;5046727;28;20899;-69
2023/06/13 08:08:49;;;;;;;10.45;5.50;;;24.20;5.00;;;;;;5030174;28;20414;-71
2023/06/13 08:11:14;;;;;;;10.87;5.60;;;24.40;4.80;;;;;;5031576;28;20395;-69
2023/06/13 08:13:40;;;;;;;8.10;5.03;;;24.40;4.60;;;;;;5033174;28;20425;-70
2023/06/13 08:16:05;;;;;;;7.17;4.60;;;24.50;4.20;;;;;;5044828;28;20476;-71
2023/06/13 08:18:31;;;;;;;14.07;5.10;;;24.50;4.10;;;;;;5033552;28;20501;-70
2023/06/13 08:20:56;;;;;;;9.83;4.93;;;24.50;3.90;;;;;;5027853;28;20444;-69
2023/06/13 08:23:22;;;;;;;8.38;5.43;;;24.50;4.10;;;;;;5029790;28;20728;-70
2023/06/13 08:25:48;;;;;;;9.50;5.30;;;24.60;3.90;;;;;;5031438;28;20449;-69
2023/06/13 08:28:13;;;;;;;9.63;5.47;;;24.70;3.70;;;;;;5029971;28;20407;-70
2023/06/13 08:30:39;;;;;;;7.82;5.60;;;24.70;2.90;;;;;;5033160;28;20464;-70
2023/06/13 08:33:08;;;;;;;9.50;5.20;;;24.80;2.80;;;;;;5045454;28;20406;-69
2023/06/13 08:35:33;;;;;;;11.00;5.30;;;24.70;2.90;;;;;;5031095;28;20415;-68
2023/06/13 08:37:59;;;;;;;11.85;5.90;;;24.70;3.20;;;;;;5047661;28;20463;-70
2023/06/13 08:40:25;;;;;;;11.80;5.60;;;24.80;3.20;;;;;;5066695;28;20435;-71
2023/06/13 08:42:51;;;;;;;8.00;5.10;;;24.90;3.30;;;;;;5050887;28;20446;-70
2023/06/13 08:45:17;;;;;;;6.93;5.00;;;25.10;3.30;;;;;;5051214;28;20404;-70
2023/06/13 08:47:46;;;;;;;13.60;5.38;;;25.20;2.80;;;;;;5050681;28;20397;-70
2023/06/13 08:50:18;;;;;;;9.57;5.45;;;25.20;2.60;;;;;;5049515;28;20385;-72
2023/06/13 08:52:46;;;;;;;8.98;5.90;;;25.10;3.10;;;;;;5050454;28;20480;-72
2023/06/13 08:55:14;;;;;;;13.02;5.53;;;25.00;3.30;;;;;;5051111;28;20903;-72
2023/06/13 08:57:41;;;;;;;9.77;5.90;;;25.20;3.30;;;;;;5048619;28;20429;-73
2023/06/13 09:00:13;;;;;;;15.98;5.85;;;25.30;2.60;;;;;;5056913;28;20393;-73
2023/06/13 09:02:43;;;;;;;11.95;6.10;;;25.20;2.60;;;;;;5050028;28;20385;-72
2023/06/13 09:05:15;;;;;;;11.48;6.00;;;25.40;2.90;;;;;;5050814;28;20388;-71
2023/06/13 09:07:50;;;;;;;16.10;7.85;;;25.50;2.50;;;;;;5051085;28;20389;-74
2023/06/13 09:10:17;;;;;;;13.88;7.10;;;25.60;3.10;;;;;;5051040;28;20866;-73
2023/06/13 09:12:46;;;;;;;14.98;7.75;;;25.50;1.80;;;;;;5051126;28;21049;-72
2023/06/13 09:15:11;;;;;;;10.73;6.43;;;25.60;2.30;;;;;;5050687;28;20377;-72
2023/06/13 09:17:37;;;;;;;16.67;6.00;;;25.60;2.30;;;;;;5050724;28;20411;-73
2023/06/13 09:20:08;;;;;;;14.85;6.75;;;25.70;1.90;;;;;;5050890;28;20411;-71
2023/06/13 09:22:34;;;;;;;10.55;6.60;;;25.80;1.90;;;;;;5050832;28;20385;-75
2023/06/13 09:25:00;;;;;;;13.20;7.30;;;25.80;1.70;;;;;;5050989;28;20377;-72
2023/06/13 09:27:27;;;;;;;12.05;6.40;;;25.80;2.90;;;;;;5050536;28;20435;-74
2023/06/13 09:29:53;;;;;;;11.20;6.30;;;25.90;2.60;;;;;;5050687;28;20382;-72
2023/06/13 09:32:20;;;;;;;14.32;7.60;;;25.90;2.00;;;;;;5049960;28;20526;-73
2023/06/13 09:34:47;;;;;;;14.57;6.65;;;26.00;2.40;;;;;;5050245;28;20381;-74
2023/06/13 09:37:13;;;;;;;13.10;6.67;;;26.10;1.90;;;;;;5050813;28;20393;-72
2023/06/13 09:39:50;;;;;;;13.77;6.95;;;26.00;2.30;;;;;;5050776;28;20377;-72
2023/06/13 09:42:20;;;;;;;10.90;6.45;;;26.10;1.40;;;;;;5050063;28;20384;-72
2023/06/13 09:44:47;;;;;;;12.20;6.30;;;26.20;1.00;;;;;;5050918;28;20397;-71
2023/06/13 09:47:23;;;;;;;12.10;6.00;;;26.20;1.00;;;;;;5050151;28;20539;-72
2023/06/13 09:49:56;;;;;;;10.82;6.80;;;26.20;1.00;;;;;;5050649;28;20381;-71
2023/06/13 09:52:24;;;;;;;12.65;6.95;;;26.50;1.00;;;;;;5050001;28;20514;-71
2023/06/13 09:54:51;;;;;;;10.05;5.80;;;26.60;1.00;;;;;;5050984;28;20377;-72
2023/06/13 09:57:16;;;;;;;15.07;7.93;;;26.60;1.00;;;;;;5066058;28;20456;-71
2023/06/13 09:59:42;;;;;;;12.17;6.23;;;26.70;1.00;;;;;;5050144;28;20409;-72
2023/06/13 10:02:08;;;;;;;16.00;7.00;;;26.70;1.00;;;;;;5050675;28;20385;-72
2023/06/13 10:04:33;;;;;;;11.70;5.73;;;26.90;1.00;;;;;;5049446;28;20381;-72
2023/06/13 10:06:59;;;;;;;13.02;6.50;;;26.90;1.00;;;;;;5050591;28;20425;-72
2023/06/13 10:09:24;;;;;;;11.23;6.23;;;26.80;1.00;;;;;;5051249;28;20435;-71
2023/06/13 10:11:53;;;;;;;17.40;6.80;;;26.80;1.00;;;;;;5050548;28;20778;-72
2023/06/13 10:14:23;;;;;;;10.00;6.50;;;27.00;1.00;;;;;;5054919;28;20462;-72
2023/06/13 10:16:58;;;;;;;11.20;6.20;;;27.30;1.00;;;;;;5055071;28;20451;-72
2023/06/13 10:19:25;;;;;;;12.40;5.93;;;27.40;1.00;;;;;;5054033;28;21027;-73
2023/06/13 10:21:52;;;;;;;9.85;5.40;;;27.60;1.00;;;;;;5053541;28;20401;-72
2023/06/13 10:24:19;;;;;;;10.23;5.95;;;27.50;1.00;;;;;;5069203;28;20889;-72
2023/06/13 10:26:46;;;;;;;11.53;6.90;;;27.30;1.00;;;;;;5054585;28;20440;-72
2023/06/13 10:29:46;;;;;;;8.23;5.55;;;27.60;1.00;;;;;;5055679;28;20392;-73
2023/06/13 10:32:53;;;;;;;9.10;5.82;;;27.80;1.00;;;;;;5054801;28;20385;-72
2023/06/13 10:35:49;;;;;;;12.50;6.70;;;27.80;1.00;;;;;;5054722;28;20486;-73
2023/06/13 10:38:38;;;;;;;12.75;6.47;;;27.80;1.00;;;;;;5053698;28;20398;-71
2023/06/13 10:41:06;;;;;;;11.77;6.50;;;27.80;1.00;;;;;;5053379;28;20862;-72
2023/06/13 10:43:51;;;;;;;8.18;5.72;;;27.80;1.00;;;;;;5053329;28;20431;-72
2023/06/13 10:46:16;;;;;;;9.48;5.85;;;27.70;1.00;;;;;;5053531;28;20449;-72
2023/06/13 10:48:52;;;;;;;8.35;5.57;;;27.60;1.00;;;;;;5053317;28;20708;-72
2023/06/13 10:51:29;;;;;;;9.77;6.50;;;27.70;1.00;;;;;;5053316;28;20365;-72
2023/06/13 10:54:03;;;;;;;11.27;6.00;;;28.00;1.00;;;;;;5053769;28;20373;-73
2023/06/13 10:56:31;;;;;;;10.40;6.20;;;28.10;1.00;;;;;;5054033;28;20377;-71
2023/06/13 10:59:10;;;;;;;10.35;5.88;;;28.10;1.00;;;;;;5052932;28;20893;-71
2023/06/13 11:01:39;;;;;;;9.93;6.10;;;28.10;1.00;;;;;;5055954;28;20742;-72
2023/06/13 11:04:20;;;;;;;10.90;6.97;;;28.00;1.00;;;;;;5056737;28;20390;-72
2023/06/13 11:06:49;;;;;;;11.70;6.10;;;28.10;1.00;;;;;;5056097;28;20457;-71
2023/06/13 11:09:17;;;;;;;12.70;6.57;;;28.20;1.00;;;;;;5053225;28;20381;-72
2023/06/13 11:11:51;;;;;;;12.10;6.78;;;28.30;1.00;;;;;;5053069;28;20428;-73
2023/06/13 11:14:21;;;;;;;9.70;5.85;;;28.20;1.00;;;;;;5052594;28;20385;-72
2023/06/13 11:16:47;;;;;;;14.80;6.10;;;28.20;1.00;;;;;;5052868;28;20456;-72
2023/06/13 11:19:15;;;;;;;8.80;5.43;;;28.20;1.00;;;;;;5052473;28;20443;-72
2023/06/13 11:21:51;;;;;;;10.90;6.30;;;28.30;1.00;;;;;;5052703;28;20382;-73
2023/06/13 11:24:16;;;;;;;17.60;6.22;;;28.20;1.00;;;;;;5051517;28;20368;-73
2023/06/13 11:26:44;;;;;;;9.70;6.20;;;28.10;1.00;;;;;;5067942;28;20742;-72
2023/06/13 11:29:10;;;;;;;9.63;6.50;;;28.00;1.00;;;;;;5052220;28;20385;-72
2023/06/13 11:31:39;;;;;;;11.50;7.00;;;27.90;1.00;;;;;;5052096;28;20695;-72
2023/06/13 11:34:13;;;;;;;11.20;6.93;;;28.00;1.00;;;;;;5052343;28;20393;-73
2023/06/13 11:36:42;;;;;;;13.30;6.90;;;28.20;1.00;;;;;;5052114;28;20862;-71
2023/06/13 11:39:23;;;;;;;11.93;6.80;;;28.30;1.00;;;;;;5051920;28;20450;-72
2023/06/13 11:41:48;;;;;;;8.43;6.15;;;28.30;1.00;;;;;;5052204;28;20389;-71
2023/06/13 11:44:14;;;;;;;8.70;6.10;;;28.30;1.00;;;;;;5067344;28;20385;-72
2023/06/13 11:46:43;;;;;;;10.35;5.88;;;28.20;1.00;;;;;;5052097;28;20397;-72
2023/06/13 11:49:14;;;;;;;11.53;6.03;;;28.30;1.00;;;;;;5051865;28;20536;-71
2023/06/13 11:51:41;;;;;;;9.77;6.63;;;28.10;1.00;;;;;;5051320;28;20420;-72
2023/06/13 11:54:08;;;;;;;13.98;6.22;;;28.00;1.00;;;;;;5051814;28;20382;-72
2023/06/13 11:56:36;;;;;;;9.23;6.15;;;28.00;1.00;;;;;;5051731;28;20393;-72
2023/06/13 11:59:17;;;;;;;9.93;5.75;;;28.20;1.00;;;;;;5051666;28;20437;-72
2023/06/13 12:01:52;;;;;;;13.40;7.55;;;28.30;1.00;;;;;;5051377;28;20381;-71
2023/06/13 12:04:18;;;;;;;10.73;6.47;;;28.40;1.00;;;;;;5050208;28;20385;-72
2023/06/13 12:06:44;;;;;;;11.35;7.18;;;28.50;1.00;;;;;;5051785;28;20508;-71
2023/06/13 12:09:10;;;;;;;14.65;6.10;;;28.60;1.00;;;;;;5051978;28;20381;-74
2023/06/13 12:11:36;;;;;;;12.25;6.78;;;28.70;1.00;;;;;;5052101;28;20785;-72
2023/06/13 12:14:02;;;;;;;13.02;6.10;;;28.80;1.00;;;;;;5051860;28;20469;-71
2023/06/13 12:16:31;;;;;;;11.93;6.63;;;28.50;1.00;;;;;;5052805;28;20837;-72
2023/06/13 12:18:57;;;;;;;11.23;6.65;;;28.40;1.00;;;;;;5051268;28;20909;-71
2023/06/13 12:21:28;;;;;;;10.20;6.50;;;28.50;1.00;;;;;;5051198;28;20478;-73
2023/06/13 12:23:58;;;;;;;11.50;6.30;;;28.50;1.00;;;;;;5051148;28;20408;-73
2023/06/13 12:26:30;;;;;;;9.57;6.80;;;28.40;1.00;;;;;;5051197;28;20388;-72
2023/06/13 12:28:59;;;;;;;10.13;6.38;;;28.40;1.00;;;;;;5051015;28;20468;-72
2023/06/13 12:31:35;;;;;;;8.63;6.60;;;28.40;1.00;;;;;;5050851;28;20389;-73
2023/06/13 12:34:26;;;;;;;10.48;7.72;;;28.50;1.00;;;;;;5050895;28;20389;-74
2023/06/13 12:36:56;;;;;;;9.90;6.75;;;28.70;1.00;;;;;;5051147;28;20385;-72
2023/06/13 12:39:23;;;;;;;14.68;6.47;;;29.00;1.00;;;;;;5051079;28;20754;-73
2023/06/13 12:41:50;;;;;;;10.43;6.60;;;28.90;1.00;;;;;;5051020;28;20754;-71
2023/06/13 12:44:16;;;;;;;8.77;6.55;;;28.90;1.00;;;;;;5050718;28;20385;-71
2023/06/13 12:46:43;;;;;;;9.85;6.20;;;29.10;1.00;;;;;;5050748;28;20480;-73